createdAt,value
2023-01-10T04:46:49.804Z,87942.00
2023-01-10T04:47:49.804Z,87944.00
2023-01-10T04:48:49.791Z,87944.00
2023-01-10T04:49:49.777Z,87950.00
2023-01-10T04:50:49.804Z,87952.00
2023-01-10T04:51:49.761Z,87958.00
2023-01-10T04:52:49.748Z,87948.00
2023-01-10T04:53:49.746Z,87958.00
2023-01-10T04:54:49.732Z,87958.00
2023-01-10T04:55:49.725Z,87960.00
2023-01-10T04:56:49.717Z,87966.00
2023-01-10T04:57:49.727Z,87973.00
2023-01-10T04:58:50.889Z,87977.00
2023-01-10T04:59:49.689Z,87975.00
2023-01-10T05:00:49.724Z,87973.00
2023-01-10T05:01:49.813Z,87981.00
2023-01-10T05:02:49.763Z,87977.00
2023-01-10T05:03:49.675Z,87979.00
2023-01-10T05:04:49.646Z,87979.00
2023-01-10T05:05:49.634Z,87979.00
2023-01-10T05:06:49.637Z,87985.00
2023-01-10T05:07:49.620Z,87983.00
2023-01-10T05:08:49.645Z,87992.00
2023-01-10T05:09:49.603Z,87992.00
2023-01-10T05:10:49.605Z,87990.00
2023-01-10T05:11:49.607Z,87994.00
2023-01-10T05:12:49.588Z,87994.00
2023-01-10T05:13:49.587Z,87996.00
2023-01-10T05:14:49.574Z,87996.00
2023-01-10T05:15:49.578Z,87992.00
2023-01-10T05:16:49.586Z,87990.00
2023-01-10T05:17:49.552Z,87994.00
2023-01-10T05:18:49.549Z,87998.00
2023-01-10T05:19:49.554Z,88002.00
2023-01-10T05:20:49.543Z,87998.00
2023-01-10T05:21:49.524Z,87998.00
2023-01-10T05:22:49.527Z,88002.00
2023-01-10T05:23:49.510Z,88000.00
2023-01-10T05:24:49.502Z,88002.00
2023-01-10T05:25:49.493Z,88008.00
2023-01-10T05:26:49.475Z,88006.00
2023-01-10T05:27:49.473Z,88006.00
2023-01-10T05:28:49.459Z,88010.00
2023-01-10T05:29:49.464Z,88018.00
2023-01-10T05:30:49.442Z,88020.00
2023-01-10T05:31:49.510Z,88020.00
2023-01-10T05:32:49.432Z,88018.00
2023-01-10T05:33:49.427Z,88018.00
2023-01-10T05:34:49.407Z,88020.00
2023-01-10T05:35:49.395Z,88020.00
2023-01-10T05:36:49.378Z,88016.00
2023-01-10T05:37:49.376Z,88022.00
2023-01-10T05:38:49.361Z,88022.00
2023-01-10T05:39:49.363Z,88026.00
2023-01-10T05:40:49.343Z,88030.00
2023-01-10T05:41:49.344Z,88026.00
2023-01-10T05:42:49.360Z,88024.00
2023-01-10T05:43:49.327Z,88028.00
2023-01-10T05:44:49.320Z,88034.00
2023-01-10T05:45:49.346Z,88040.00
2023-01-10T05:46:49.304Z,88038.00
2023-01-10T05:47:49.312Z,88040.00
2023-01-10T05:48:49.291Z,88042.00
2023-01-10T05:49:49.289Z,88042.00
2023-01-10T05:50:49.280Z,88042.00
2023-01-10T05:51:49.296Z,88043.00
2023-01-10T05:52:49.261Z,88051.00
2023-01-10T05:53:50.336Z,88049.00
2023-01-10T05:54:49.241Z,88053.00
2023-01-10T05:55:49.227Z,88061.00
2023-01-10T05:56:49.209Z,88057.00
2023-01-10T05:57:49.199Z,88063.00
2023-01-10T05:58:51.482Z,88073.00
2023-01-10T05:59:49.179Z,88071.00
2023-01-10T06:00:49.175Z,88075.00
2023-01-10T06:01:49.183Z,88081.00
2023-01-10T06:02:49.220Z,88083.00
2023-01-10T06:03:49.161Z,88085.00
2023-01-10T06:04:49.148Z,88083.00
2023-01-10T06:05:49.333Z,88087.00
2023-01-10T06:06:49.117Z,88085.00
2023-01-10T06:07:49.118Z,88085.00
2023-01-10T06:08:49.128Z,88089.00
2023-01-10T06:09:49.094Z,88087.00
2023-01-10T06:10:49.969Z,88094.00
2023-01-10T06:11:49.071Z,88089.00
2023-01-10T06:12:49.072Z,88090.00
2023-01-10T06:13:49.065Z,88096.00
2023-01-10T06:14:49.062Z,88100.00
2023-01-10T06:15:49.081Z,88100.00
2023-01-10T06:16:49.033Z,88102.00
2023-01-10T06:17:49.029Z,88098.00
2023-01-10T06:18:49.017Z,88100.00
2023-01-10T06:19:49.042Z,88108.00
2023-01-10T06:20:49.025Z,88114.00
2023-01-10T06:21:48.983Z,88120.00
2023-01-10T06:22:48.974Z,88118.00
2023-01-10T06:23:48.973Z,88120.00
2023-01-10T06:24:48.958Z,88122.00
2023-01-10T06:25:48.961Z,88132.00
2023-01-10T06:26:48.940Z,88132.00
2023-01-10T06:27:48.910Z,88132.00
2023-01-10T06:28:48.906Z,88132.00
2023-01-10T06:29:48.876Z,88126.00
2023-01-10T06:30:48.877Z,88126.00
2023-01-10T06:31:48.849Z,88128.00
2023-01-10T06:32:48.852Z,88138.00
2023-01-10T06:33:48.822Z,88138.00
2023-01-10T06:34:48.801Z,88138.00
2023-01-10T06:35:48.802Z,88140.00
2023-01-10T06:36:48.790Z,88138.00
2023-01-10T06:37:48.772Z,88138.00
2023-01-10T06:38:48.754Z,88138.00
2023-01-10T06:39:48.722Z,88140.00
2023-01-10T06:40:48.709Z,88144.00
2023-01-10T06:41:48.701Z,88147.00
2023-01-10T06:42:48.672Z,88159.00
2023-01-10T06:43:48.674Z,88155.00
2023-01-10T06:44:48.634Z,88151.00
2023-01-10T06:45:48.722Z,88151.00
2023-01-10T06:46:48.892Z,88155.00
2023-01-10T06:47:48.582Z,88159.00
2023-01-10T06:48:48.588Z,88161.00
2023-01-10T06:49:48.554Z,88163.00
2023-01-10T06:50:48.545Z,88161.00
2023-01-10T06:51:48.520Z,88165.00
2023-01-10T06:52:48.490Z,88165.00
2023-01-10T06:53:48.474Z,88167.00
2023-01-10T06:54:48.445Z,88173.00
2023-01-10T06:55:48.444Z,88179.00
2023-01-10T06:56:48.413Z,88181.00
2023-01-10T06:57:48.382Z,88183.00
2023-01-10T06:58:48.352Z,88183.00
2023-01-10T06:59:48.349Z,88181.00
2023-01-10T07:00:48.314Z,88185.00
2023-01-10T07:01:48.413Z,88183.00
2023-01-10T07:02:48.283Z,88183.00
2023-01-10T07:03:48.325Z,88189.00
2023-01-10T07:04:48.232Z,88189.00
2023-01-10T07:05:48.226Z,88192.00
2023-01-10T07:06:48.187Z,88187.00
2023-01-10T07:07:48.176Z,88192.00
2023-01-10T07:08:48.169Z,88189.00
2023-01-10T07:09:48.130Z,88200.00
2023-01-10T07:10:48.121Z,88206.00
2023-01-10T07:11:48.089Z,88206.00
2023-01-10T07:12:48.062Z,88210.00
2023-01-10T07:13:48.034Z,88208.00
2023-01-10T07:14:48.016Z,88210.00
2023-01-10T07:15:47.986Z,88210.00
2023-01-10T07:16:47.972Z,88204.00
2023-01-10T07:17:47.945Z,88206.00
2023-01-10T07:18:47.908Z,88210.00
2023-01-10T07:19:47.878Z,88212.00
2023-01-10T07:20:47.870Z,88214.00
2023-01-10T07:21:47.848Z,88214.00
2023-01-10T07:22:47.803Z,88216.00
2023-01-10T07:23:47.778Z,88218.00
2023-01-10T07:24:47.752Z,88222.00
2023-01-10T07:25:47.724Z,88237.00
2023-01-10T07:26:47.693Z,88237.00
2023-01-10T07:27:47.676Z,88239.00
2023-01-10T07:28:47.639Z,88241.00
2023-01-10T07:29:47.619Z,88245.00
2023-01-10T07:30:47.590Z,88243.00
2023-01-10T07:31:47.559Z,88251.00
2023-01-10T07:32:47.554Z,88251.00
2023-01-10T08:31:45.899Z,88372.00
2023-01-10T08:32:45.899Z,88368.00
2023-01-10T08:33:45.864Z,88372.00
2023-01-10T08:34:45.831Z,88368.00
2023-01-10T08:35:45.809Z,88374.00
2023-01-10T08:36:45.778Z,88368.00
2023-01-10T08:37:45.764Z,88366.00
2023-01-10T08:38:45.758Z,88372.00
2023-01-10T08:39:45.688Z,88374.00
2023-01-10T08:40:45.677Z,88376.00
2023-01-10T08:41:45.650Z,88380.00
2023-01-10T08:42:45.662Z,88388.00
2023-01-10T08:43:45.590Z,88390.00
2023-01-10T08:44:45.567Z,88392.00
2023-01-10T08:45:45.547Z,88386.00
2023-01-10T08:46:45.641Z,88392.00
2023-01-10T08:47:45.495Z,88398.00
2023-01-10T08:48:45.488Z,88392.00
2023-01-10T08:49:46.009Z,88398.00
2023-01-10T08:50:45.426Z,88400.00
2023-01-10T08:51:45.406Z,88404.00
2023-01-10T08:52:45.405Z,88404.00
2023-01-10T08:53:45.390Z,88406.00
2023-01-10T08:54:45.341Z,88406.00
2023-01-10T08:55:45.310Z,88408.00
2023-01-10T08:56:45.288Z,88410.00
2023-01-10T08:57:45.266Z,88410.00
2023-01-10T08:58:45.244Z,88412.00
2023-01-10T08:59:45.234Z,88410.00
2023-01-10T09:00:45.199Z,88414.00
2023-01-10T09:01:45.329Z,88416.00
2023-01-10T09:02:45.232Z,88416.00
2023-01-10T09:03:45.154Z,88416.00
2023-01-10T09:04:45.116Z,88421.00
2023-01-10T09:05:45.112Z,88423.00
2023-01-10T09:06:45.075Z,88427.00
2023-01-10T09:07:45.054Z,88429.00
2023-01-10T09:08:45.054Z,88435.00
2023-01-10T09:09:45.013Z,88439.00
2023-01-10T09:10:45.010Z,88441.00
2023-01-10T09:11:44.980Z,88441.00
2023-01-10T09:12:44.949Z,88441.00
2023-01-10T09:13:44.924Z,88445.00
2023-01-10T09:14:44.893Z,88447.00
2023-01-10T09:15:44.923Z,88453.00
2023-01-10T09:16:44.840Z,88455.00
2023-01-10T09:17:44.818Z,88457.00
2023-01-10T09:18:44.800Z,88453.00
2023-01-10T10:53:42.287Z,88548.00
2023-01-10T10:54:42.250Z,88550.00
2023-01-10T10:55:42.220Z,88554.00
2023-01-10T10:58:42.159Z,88548.00
2023-01-10T10:59:42.122Z,88548.00
2023-01-10T11:00:42.178Z,88546.00
2023-01-10T11:01:42.169Z,88548.00
2023-01-10T11:02:42.059Z,88548.00
2023-01-10T11:03:42.028Z,88548.00
2023-01-10T11:04:42.064Z,88550.00
2023-01-10T11:05:41.999Z,88544.00
2023-01-10T11:06:41.985Z,88544.00
2023-01-10T11:07:41.963Z,88548.00
2023-01-10T11:08:41.943Z,88552.00
2023-01-10T11:09:41.961Z,88560.00
2023-01-10T11:10:41.942Z,88560.00
2023-01-10T11:11:41.882Z,88558.00
2023-01-10T11:12:41.890Z,88560.00
2023-01-10T11:13:41.838Z,88566.00
2023-01-10T11:14:41.837Z,88566.00
2023-01-10T11:15:41.813Z,88558.00
2023-01-10T11:17:41.743Z,88554.00
2023-01-10T11:18:41.707Z,88538.00
2023-01-10T11:19:41.686Z,88552.00
2023-01-10T11:20:41.673Z,88566.00
2023-01-10T11:21:41.658Z,88538.00
2023-01-10T11:22:41.613Z,88532.00
2023-01-10T11:23:41.586Z,88558.00
2023-01-10T11:24:41.564Z,88546.00
2023-01-10T11:25:41.547Z,88515.00
2023-01-10T11:26:41.515Z,88538.00
2023-01-10T11:27:41.497Z,88538.00
2023-01-10T11:28:41.459Z,88505.00
2023-01-10T11:29:41.424Z,88521.00
2023-01-10T11:30:41.397Z,88548.00
2023-01-10T11:31:41.424Z,88513.00
2023-01-10T11:32:41.340Z,88501.00
2023-01-10T11:33:41.322Z,88525.00
2023-01-10T11:34:41.286Z,88513.00
2023-01-10T11:35:41.258Z,88478.00
2023-01-10T11:36:41.231Z,88501.00
2023-01-10T11:37:41.184Z,88513.00
2023-01-10T11:38:41.157Z,88499.00
2023-01-10T11:39:41.126Z,88507.00
2023-01-10T11:40:41.094Z,88531.00
2023-01-10T11:41:41.137Z,88509.00
2023-01-10T11:42:41.036Z,88499.00
2023-01-10T11:43:41.028Z,88529.00
2023-01-10T11:44:40.999Z,88536.00
2023-01-10T11:45:41.027Z,88521.00
2023-01-10T11:46:40.986Z,88521.00
2023-01-10T11:47:45.309Z,88536.00
2023-01-10T11:49:03.639Z,88540.00
2023-01-10T11:49:41.897Z,88532.00
2023-01-10T11:50:40.902Z,88532.00
2023-01-10T11:51:40.936Z,88540.00
2023-01-10T11:52:40.941Z,88540.00
2023-01-10T11:53:40.950Z,88540.00
2023-01-10T11:54:40.855Z,88540.00
2023-01-10T11:55:40.750Z,88534.00
2023-01-10T11:56:40.768Z,88532.00
2023-01-10T11:57:40.695Z,88529.00
2023-01-10T11:58:40.800Z,88536.00
2023-01-10T11:59:40.711Z,88534.00
2023-01-10T12:00:40.625Z,88531.00
2023-01-10T12:01:40.582Z,88532.00
2023-01-10T12:02:40.643Z,88527.00
2023-01-10T12:03:40.549Z,88525.00
2023-01-10T12:04:40.528Z,88529.00
2023-01-10T12:05:40.514Z,88527.00
2023-01-10T12:06:40.490Z,88531.00
2023-01-10T12:07:40.491Z,88532.00
2023-01-10T12:08:40.460Z,88536.00
2023-01-10T12:09:40.434Z,88538.00
2023-01-10T12:10:40.437Z,88546.00
2023-01-10T12:11:40.393Z,88546.00
2023-01-10T12:12:40.369Z,88542.00
2023-01-10T12:13:40.360Z,88542.00
2023-01-10T12:14:40.327Z,88546.00
2023-01-10T12:15:40.322Z,88544.00
2023-01-10T12:16:40.324Z,88546.00
2023-01-10T12:17:40.276Z,88548.00
2023-01-10T12:18:40.251Z,88550.00
2023-01-10T12:19:40.235Z,88554.00
2023-01-10T12:20:40.208Z,88554.00
2023-01-10T12:21:40.180Z,88554.00
2023-01-10T12:22:40.161Z,88552.00
2023-01-10T12:23:40.148Z,88554.00
2023-01-10T12:24:40.149Z,88548.00
2023-01-10T12:25:40.114Z,88560.00
2023-01-10T12:26:40.080Z,88552.00
2023-01-10T12:27:40.114Z,88556.00
2023-01-10T12:28:40.101Z,88562.00
2023-01-10T12:29:40.029Z,88564.00
2023-01-10T12:30:40.048Z,88568.00
2023-01-10T12:31:39.987Z,88570.00
2023-01-10T12:32:39.988Z,88570.00
2023-01-10T12:33:39.952Z,88568.00
2023-01-10T12:34:39.952Z,88562.00
2023-01-10T12:35:39.925Z,88560.00
2023-01-10T12:36:39.900Z,88562.00
2023-01-10T12:37:39.886Z,88568.00
2023-01-10T12:38:39.865Z,88570.00
2023-01-10T12:39:39.859Z,88572.00
2023-01-10T12:40:39.827Z,88568.00
2023-01-10T12:41:39.807Z,88570.00
2023-01-10T12:42:39.792Z,88576.00
2023-01-10T12:43:39.768Z,88582.00
2023-01-10T12:44:39.737Z,88589.00
2023-01-10T12:45:39.718Z,88591.00
2023-01-10T12:47:05.354Z,88591.00
2023-01-10T12:47:40.873Z,88591.00
2023-01-10T12:48:39.670Z,88597.00
2023-01-10T12:49:39.637Z,88595.00
2023-01-10T12:50:39.621Z,88599.00
2023-01-10T12:51:39.607Z,88601.00
2023-01-10T12:52:39.564Z,88599.00
2023-01-10T12:53:39.570Z,88603.00
2023-01-10T12:54:39.541Z,88603.00
2023-01-10T12:55:39.519Z,88605.00
2023-01-10T12:56:39.508Z,88605.00
2023-01-10T12:57:39.653Z,88607.00
2023-01-10T12:58:39.474Z,88607.00
2023-01-10T12:59:39.447Z,88609.00
2023-01-10T13:00:47.777Z,88613.00
2023-01-10T13:01:40.677Z,88609.00
2023-01-10T13:02:39.410Z,88609.00
2023-01-10T13:03:39.357Z,88607.00
2023-01-10T13:04:39.348Z,88609.00
2023-01-10T13:05:39.317Z,88609.00
2023-01-10T13:06:39.295Z,88609.00
2023-01-10T13:07:39.276Z,88615.00
2023-01-10T13:08:39.785Z,88613.00
2023-01-10T13:09:39.225Z,88617.00
2023-01-10T13:10:39.210Z,88621.00
2023-01-10T13:11:39.233Z,88619.00
2023-01-10T13:12:39.200Z,88621.00
2023-01-10T13:13:39.169Z,88621.00
2023-01-10T13:14:39.131Z,88621.00
2023-01-10T13:15:39.155Z,88621.00
2023-01-10T13:16:39.094Z,88623.00
2023-01-10T13:17:39.087Z,88627.00
2023-01-10T13:18:39.058Z,88623.00
2023-01-10T13:19:39.037Z,88625.00
2023-01-10T13:20:39.020Z,88625.00
2023-01-10T13:21:39.002Z,88627.00
2023-01-10T13:22:38.983Z,88627.00
2023-01-10T13:23:38.983Z,88627.00
2023-01-10T13:24:38.951Z,88627.00
2023-01-10T13:25:38.969Z,88627.00
2023-01-10T13:26:38.928Z,88623.00
2023-01-10T13:27:38.910Z,88625.00
2023-01-10T13:28:38.901Z,88623.00
2023-01-10T13:29:38.868Z,88629.00
2023-01-10T13:30:38.876Z,88629.00
2023-01-10T13:31:38.822Z,88627.00
2023-01-10T13:32:38.838Z,88625.00
2023-01-10T13:33:38.787Z,88629.00
2023-01-10T13:34:38.783Z,88625.00
2023-01-10T13:35:38.744Z,88625.00
2023-01-10T13:36:38.726Z,88621.00
2023-01-10T13:37:38.695Z,88621.00
2023-01-10T13:38:38.681Z,88617.00
2023-01-10T13:39:38.675Z,88617.00
2023-01-10T13:40:38.646Z,88615.00
2023-01-10T13:41:38.618Z,88615.00
2023-01-10T13:42:38.598Z,88617.00
2023-01-10T13:43:38.566Z,88621.00
2023-01-10T13:44:38.562Z,88621.00
2023-01-10T13:45:38.552Z,88619.00
2023-01-10T13:46:38.539Z,88621.00
2023-01-10T13:47:38.501Z,88619.00
2023-01-10T13:48:38.472Z,88621.00
2023-01-10T13:49:38.449Z,88615.00
2023-01-10T13:50:38.417Z,88621.00
2023-01-10T13:51:38.403Z,88623.00
2023-01-10T13:52:38.373Z,88627.00
2023-01-10T13:53:38.354Z,88629.00
2023-01-10T13:54:38.327Z,88625.00
2023-01-10T13:55:38.311Z,88621.00
2023-01-10T13:56:38.290Z,88619.00
2023-01-10T13:57:38.250Z,88623.00
2023-01-10T13:58:38.221Z,88619.00
2023-01-10T13:59:38.216Z,88623.00
2023-01-10T14:00:38.194Z,88625.00
2023-01-10T14:01:38.267Z,88629.00
2023-01-10T14:02:38.150Z,88629.00
2023-01-10T14:03:38.130Z,88631.00
2023-01-10T14:04:38.123Z,88631.00
2023-01-10T14:05:38.075Z,88633.00
2023-01-10T14:06:38.053Z,88633.00
2023-01-10T14:07:38.020Z,88633.00
2023-01-10T14:08:38.024Z,88634.00
2023-01-10T14:09:37.992Z,88633.00
2023-01-10T14:10:37.984Z,88634.00
2023-01-10T14:11:37.937Z,88638.00
2023-01-10T14:12:37.909Z,88640.00
2023-01-10T14:13:37.908Z,88642.00
2023-01-10T14:14:37.895Z,88644.00
2023-01-10T14:15:37.886Z,88644.00
2023-01-10T14:16:37.842Z,88642.00
2023-01-10T14:17:37.828Z,88642.00
2023-01-10T14:18:37.792Z,88640.00
2023-01-10T14:19:37.796Z,88644.00
2023-01-10T14:20:37.767Z,88646.00
2023-01-10T14:21:37.737Z,88644.00
2023-01-10T14:22:37.714Z,88642.00
2023-01-10T14:23:37.690Z,88644.00
2023-01-10T14:24:37.678Z,88646.00
2023-01-10T14:25:37.644Z,88644.00
2023-01-10T14:26:37.624Z,88646.00
2023-01-10T14:27:37.601Z,88648.00
2023-01-10T14:28:37.585Z,88650.00
2023-01-10T14:29:37.548Z,88650.00
2023-01-10T14:30:37.532Z,88652.00
2023-01-10T14:31:37.509Z,88652.00
2023-01-10T14:32:37.478Z,88654.00
2023-01-10T14:33:37.472Z,88658.00
2023-01-10T14:34:37.449Z,88658.00
2023-01-10T14:35:37.420Z,88660.00
2023-01-10T14:36:37.401Z,88658.00
2023-01-10T14:37:37.414Z,88662.00
2023-01-10T14:38:37.370Z,88662.00
2023-01-10T14:39:37.360Z,88662.00
2023-01-10T14:40:37.332Z,88662.00
2023-01-10T14:41:37.342Z,88662.00
2023-01-10T14:42:37.291Z,88658.00
2023-01-10T14:43:37.269Z,88658.00
2023-01-10T14:44:37.251Z,88658.00
2023-01-10T14:45:37.242Z,88662.00
2023-01-10T14:46:37.243Z,88664.00
2023-01-10T14:47:37.181Z,88660.00
2023-01-10T14:48:37.168Z,88662.00
2023-01-10T14:49:37.151Z,88660.00
2023-01-10T14:50:37.139Z,88662.00
2023-01-10T14:51:37.110Z,88660.00
2023-01-10T14:52:37.089Z,88662.00
2023-01-10T14:53:37.076Z,88662.00
2023-01-10T14:54:37.042Z,88662.00
2023-01-10T14:55:37.066Z,88666.00
2023-01-10T14:56:37.006Z,88662.00
2023-01-10T14:57:36.986Z,88664.00
2023-01-10T14:58:36.980Z,88666.00
2023-01-10T14:59:36.986Z,88668.00
2023-01-10T15:00:36.933Z,88664.00
2023-01-10T15:01:36.983Z,88666.00
2023-01-10T15:02:36.872Z,88668.00
2023-01-10T15:03:36.863Z,88670.00
2023-01-10T15:04:36.858Z,88674.00
2023-01-10T15:05:36.813Z,88674.00
2023-01-10T15:06:36.823Z,88674.00
2023-01-10T15:07:36.762Z,88674.00
2023-01-10T15:08:36.735Z,88676.00
2023-01-10T15:09:36.715Z,88674.00
2023-01-10T15:10:36.694Z,88670.00
2023-01-10T15:11:36.678Z,88668.00
2023-01-10T15:12:36.653Z,88670.00
2023-01-10T15:13:36.629Z,88674.00
2023-01-10T15:14:36.613Z,88678.00
2023-01-10T15:15:36.580Z,88676.00
2023-01-10T15:16:36.577Z,88676.00
2023-01-10T15:17:36.532Z,88680.00
2023-01-10T15:18:36.505Z,88680.00
2023-01-10T15:19:36.493Z,88678.00
2023-01-10T15:20:36.472Z,88678.00
2023-01-10T15:21:36.459Z,88681.00
2023-01-10T15:22:36.447Z,88681.00
2023-01-10T15:23:36.413Z,88683.00
2023-01-10T15:24:36.402Z,88681.00
2023-01-10T15:25:36.379Z,88683.00
2023-01-10T15:26:36.352Z,88685.00
2023-01-10T15:27:36.364Z,88685.00
2023-01-10T15:28:36.322Z,88685.00
2023-01-10T15:29:36.315Z,88685.00
2023-01-10T15:30:36.315Z,88685.00
2023-01-10T15:31:36.310Z,88685.00
2023-01-10T15:32:36.259Z,88687.00
2023-01-10T15:33:36.219Z,88691.00
2023-01-10T15:34:36.198Z,88693.00
2023-01-10T15:35:37.181Z,88691.00
2023-01-10T15:36:36.183Z,88691.00
2023-01-10T15:37:36.159Z,88689.00
2023-01-10T15:38:36.159Z,88689.00
2023-01-10T15:39:36.126Z,88689.00
2023-01-10T15:40:36.359Z,88689.00
2023-01-10T15:41:36.129Z,88689.00
2023-01-10T15:42:36.091Z,88691.00
2023-01-10T15:43:36.068Z,88687.00
2023-01-10T15:44:36.061Z,88687.00
2023-01-10T15:45:36.043Z,88691.00
2023-01-10T15:46:36.059Z,88689.00
2023-01-10T15:47:36.027Z,88689.00
2023-01-10T15:48:36.006Z,88687.00
2023-01-10T15:49:35.988Z,88687.00
2023-01-10T15:50:35.966Z,88683.00
2023-01-10T15:51:35.941Z,88685.00
2023-01-10T15:52:35.919Z,88683.00
2023-01-10T15:53:35.915Z,88685.00
2023-01-10T15:54:35.891Z,88685.00
2023-01-10T15:55:35.881Z,88689.00
2023-01-10T15:56:35.851Z,88693.00
2023-01-10T15:57:35.857Z,88695.00
2023-01-10T15:58:35.847Z,88695.00
2023-01-10T15:59:35.812Z,88697.00
2023-01-10T16:00:35.814Z,88693.00
2023-01-10T16:01:36.079Z,88693.00
2023-01-10T16:02:36.047Z,88691.00
2023-01-10T16:03:35.979Z,88689.00
2023-01-10T16:04:35.743Z,88691.00
2023-01-10T16:05:35.722Z,88693.00
2023-01-10T16:06:35.724Z,88695.00
2023-01-10T16:07:35.695Z,88697.00
2023-01-10T16:08:35.660Z,88699.00
2023-01-10T16:09:35.656Z,88697.00
2023-01-10T16:10:35.638Z,88697.00
2023-01-10T16:11:35.627Z,88695.00
2023-01-10T16:12:35.606Z,88695.00
2023-01-10T16:13:35.589Z,88695.00
2023-01-10T16:14:35.599Z,88697.00
2023-01-10T16:15:35.575Z,88697.00
2023-01-10T16:16:35.588Z,88697.00
2023-01-10T16:17:35.573Z,88699.00
2023-01-10T16:18:35.514Z,88701.00
2023-01-10T16:19:35.501Z,88703.00
2023-01-10T16:20:35.493Z,88703.00
2023-01-10T16:21:35.501Z,88697.00
2023-01-10T16:22:35.452Z,88697.00
2023-01-10T16:23:35.460Z,88699.00
2023-01-10T16:24:35.425Z,88697.00
2023-01-10T16:25:35.436Z,88701.00
2023-01-10T16:26:35.403Z,88701.00
2023-01-10T16:27:35.400Z,88699.00
2023-01-10T16:28:36.242Z,88701.00
2023-01-10T16:29:35.371Z,88701.00
2023-01-10T16:30:35.362Z,88701.00
2023-01-10T16:31:35.418Z,88697.00
2023-01-10T16:32:35.325Z,88701.00
2023-01-10T16:33:35.334Z,88699.00
2023-01-10T16:34:35.295Z,88699.00
2023-01-10T16:35:35.282Z,88699.00
2023-01-10T16:36:35.264Z,88697.00
2023-01-10T16:37:35.263Z,88695.00
2023-01-10T16:38:35.254Z,88691.00
2023-01-10T16:39:35.236Z,88689.00
2023-01-10T16:40:36.475Z,88691.00
2023-01-10T16:41:35.200Z,88693.00
2023-01-10T16:42:35.174Z,88695.00
2023-01-10T16:43:35.157Z,88697.00
2023-01-10T16:44:35.132Z,88699.00
2023-01-10T16:45:35.162Z,88699.00
2023-01-10T16:46:35.104Z,88699.00
2023-01-10T16:47:35.106Z,88695.00
2023-01-10T16:48:35.078Z,88693.00
2023-01-10T16:49:35.068Z,88691.00
2023-01-10T16:50:35.048Z,88693.00
2023-01-10T16:51:35.038Z,88693.00
2023-01-10T16:52:35.016Z,88693.00
2023-01-10T16:53:35.021Z,88695.00
2023-01-10T16:54:34.998Z,88691.00
2023-01-10T16:55:34.984Z,88691.00
2023-01-10T16:56:34.981Z,88691.00
2023-01-10T16:57:34.967Z,88691.00
2023-01-10T16:58:35.004Z,88693.00
2023-01-10T16:59:34.959Z,88695.00
2023-01-10T17:00:34.960Z,88699.00
2023-01-10T17:01:35.134Z,88701.00
2023-01-10T17:02:34.928Z,88701.00
2023-01-10T17:03:34.903Z,88701.00
2023-01-10T17:04:34.959Z,88701.00
2023-01-10T17:05:34.889Z,88699.00
2023-01-10T17:06:34.865Z,88699.00
2023-01-10T17:07:34.857Z,88699.00
2023-01-10T17:08:34.845Z,88701.00
2023-01-10T17:09:34.832Z,88703.00
2023-01-10T17:10:34.846Z,88709.00
2023-01-10T17:11:34.804Z,88711.00
2023-01-10T17:12:34.796Z,88709.00
2023-01-10T17:13:34.788Z,88715.00
2023-01-10T17:14:34.782Z,88715.00
2023-01-10T17:15:34.756Z,88717.00
2023-01-10T17:16:34.763Z,88717.00
2023-01-10T17:17:34.723Z,88719.00
2023-01-10T17:18:34.714Z,88721.00
2023-01-10T17:19:34.690Z,88721.00
2023-01-10T17:20:34.673Z,88721.00
2023-01-10T17:21:34.649Z,88721.00
2023-01-10T17:22:34.635Z,88719.00
2023-01-10T17:23:34.619Z,88721.00
2023-01-10T17:24:34.588Z,88723.00
2023-01-10T17:25:34.574Z,88725.00
2023-01-10T17:26:34.554Z,88725.00
2023-01-10T17:27:34.554Z,88725.00
2023-01-10T17:28:34.531Z,88725.00
2023-01-10T17:29:34.530Z,88723.00
2023-01-10T17:30:34.534Z,88725.00
2023-01-10T17:31:34.527Z,88723.00
2023-01-10T17:32:34.457Z,88725.00
2023-01-10T17:33:34.441Z,88727.00
2023-01-10T17:34:34.435Z,88721.00
2023-01-10T17:35:34.423Z,88723.00
2023-01-10T17:36:34.416Z,88719.00
2023-01-10T17:37:34.395Z,88719.00
2023-01-10T17:38:34.398Z,88719.00
2023-01-10T17:39:34.369Z,88717.00
2023-01-10T17:40:34.366Z,88719.00
2023-01-10T17:41:34.342Z,88715.00
2023-01-10T17:42:34.336Z,88721.00
2023-01-10T17:43:34.317Z,88719.00
2023-01-10T17:44:34.313Z,88723.00
2023-01-10T17:45:34.341Z,88723.00
2023-01-10T17:46:34.276Z,88721.00
2023-01-10T17:47:34.247Z,88721.00
2023-01-10T17:48:34.223Z,88723.00
2023-01-10T17:49:34.221Z,88725.00
2023-01-10T17:50:34.190Z,88727.00
2023-01-10T17:51:34.182Z,88727.00
2023-01-10T17:52:34.182Z,88729.00
2023-01-10T17:53:34.146Z,88729.00
2023-01-10T17:54:34.134Z,88729.00
2023-01-10T17:55:34.120Z,88727.00
2023-01-10T17:56:34.108Z,88731.00
2023-01-10T17:57:34.094Z,88731.00
2023-01-10T17:58:34.135Z,88729.00
2023-01-10T17:59:34.060Z,88731.00
2023-01-10T18:00:34.049Z,88729.00
2023-01-10T18:01:34.160Z,88729.00
2023-01-10T18:02:34.154Z,88725.00
2023-01-10T18:03:34.024Z,88723.00
2023-01-10T18:04:33.987Z,88723.00
2023-01-10T18:05:33.963Z,88723.00
2023-01-10T18:06:33.954Z,88721.00
2023-01-10T18:07:33.937Z,88723.00
2023-01-10T18:08:33.924Z,88723.00
2023-01-10T18:09:33.910Z,88725.00
2023-01-10T18:10:33.900Z,88727.00
2023-01-10T18:11:33.880Z,88725.00
2023-01-10T18:12:33.863Z,88725.00
2023-01-10T18:13:33.856Z,88729.00
2023-01-10T18:14:33.860Z,88733.00
2023-01-10T18:15:33.822Z,88733.00
2023-01-10T18:16:33.920Z,88744.00
2023-01-10T18:17:33.777Z,88744.00
2023-01-10T18:18:33.762Z,88742.00
2023-01-10T18:19:33.743Z,88735.00
2023-01-10T18:20:33.737Z,88735.00
2023-01-10T18:21:33.725Z,88735.00
2023-01-10T18:22:33.703Z,88735.00
2023-01-10T18:23:33.693Z,88735.00
2023-01-10T18:24:33.659Z,88744.00
2023-01-10T18:25:33.647Z,88744.00
2023-01-10T18:26:33.630Z,88746.00
2023-01-10T18:27:33.607Z,88748.00
2023-01-10T18:28:41.682Z,88750.00
2023-01-10T18:29:34.582Z,88754.00
2023-01-10T18:30:33.633Z,88750.00
2023-01-10T18:31:33.540Z,88752.00
2023-01-10T18:32:33.504Z,88752.00
2023-01-10T18:33:33.482Z,88752.00
2023-01-10T18:34:33.465Z,88750.00
2023-01-10T18:35:33.458Z,88748.00
2023-01-10T18:36:33.433Z,88746.00
2023-01-10T18:37:33.408Z,88748.00
2023-01-10T18:38:33.382Z,88750.00
2023-01-10T18:39:33.368Z,88750.00
2023-01-10T18:40:33.360Z,88748.00
2023-01-10T18:41:33.349Z,88748.00
2023-01-10T18:42:33.329Z,88748.00
2023-01-10T18:43:33.319Z,88746.00
2023-01-10T18:44:33.307Z,88744.00
2023-01-10T18:45:33.308Z,88746.00
2023-01-10T18:46:33.380Z,88748.00
2023-01-10T18:47:33.278Z,88748.00
2023-01-10T18:48:33.234Z,88748.00
2023-01-10T18:49:33.237Z,88746.00
2023-01-10T18:50:33.218Z,88748.00
2023-01-10T18:51:33.194Z,88748.00
2023-01-10T18:52:33.199Z,88746.00
2023-01-10T18:53:33.198Z,88748.00
2023-01-10T18:54:33.146Z,88748.00
2023-01-10T18:55:33.177Z,88746.00
2023-01-10T18:56:33.126Z,88746.00
2023-01-10T18:57:33.119Z,88746.00
2023-01-10T18:58:33.107Z,88744.00
2023-01-10T18:59:33.084Z,88744.00
2023-01-10T19:00:33.075Z,88746.00
2023-01-10T19:01:34.691Z,88744.00
2023-01-10T19:02:33.197Z,88746.00
2023-01-10T19:03:33.048Z,88746.00
2023-01-10T19:04:33.033Z,88748.00
2023-01-10T19:05:33.014Z,88752.00